Weather History for Grass Valley, CA

Change the Weather History Date:

Sunday, November 25, 2012

  Actual Average (KBLU) Record (KBLU)
Temperature  
Mean Temperature 54 °F -  
Max Temperature 62 °F 47 °F 67 °F (1969)
Min Temperature 46 °F 35 °F 22 °F (1973)
Degree Days  
Heating Degree Days 11    
Growing Degree Days 4 (Base 50)    
Moisture  
Dew Point 35 °F    
Average Humidity 52    
Maximum Humidity 71    
Minimum Humidity 29    
Precipitation  
Precipitation 0.00 in - - ()
Sea Level Pressure  
Sea Level Pressure 30.03 in    
Wind  
Wind Speed 0 mph ()    
Max Wind Speed 5 mph    
Max Gust Speed -    
Visibility 10.0 miles    
Events      
Averages and records for this station are not official NWS values.
T = Trace of Precipitation, MM = Missing Value Source: Averaged Metar Reports

Daily Weather History Graph

Daily Weather History Graph

Search for Another Location

Airport:

Trip Planner

Search our weather history database for the weather conditions in past years. The results will help you decide how hot, cold, wet, or windy it might be!

Date:

Astronomy

Nov. 25, 2012 Rise Set
Actual Time 6:58 AM PST 4:43 PM PST
Civil Twilight 6:29 AM PST 5:12 PM PST
Nautical Twilight 5:56 AM PST 5:45 PM PST
Astronomical Twilight 5:24 AM PST 6:17 PM PST
Moon 3:02 PM PST (11/25) 4:18 AM PST (11/25)
Length of Visible Light 10h 42m
Length of Day
9h 44m
Waxing Gibbous, 93% of the Moon is Illuminated
Nov 25
Waxing Gibbous
Nov 28
Full
Dec 6
Last Quarter
Dec 13
New
Dec 19
First Quarter

Hourly Weather History & Observations

Time (PST) Temp. Dew Point Humidity Pressure Visibility Wind Dir Wind Speed Gust Speed Precip Events Conditions
12:15 AM 51.8 °F 32.0 °F 47% 30.08 in 10.0 mi Calm Calm - N/A   Clear
12:35 AM 51.8 °F 32.0 °F 47% 30.08 in 10.0 mi Calm Calm - N/A   Clear
12:55 AM 48.2 °F 35.6 °F 62% 30.08 in 10.0 mi Calm Calm - N/A   Clear
1:15 AM 48.2 °F 35.6 °F 62% 30.08 in 10.0 mi Calm Calm - N/A   Clear
1:35 AM 48.2 °F 35.6 °F 62% 30.08 in 10.0 mi Calm Calm - N/A   Clear
1:55 AM 46.4 °F 37.4 °F 71% 30.08 in 10.0 mi Calm Calm - N/A   Clear
2:15 AM 48.2 °F 35.6 °F 62% 30.08 in 10.0 mi Calm Calm - N/A   Clear
2:35 AM 48.2 °F 35.6 °F 62% 30.08 in 10.0 mi Calm Calm - N/A   Clear
2:55 AM 48.2 °F 37.4 °F 66% 30.08 in 10.0 mi Calm Calm - N/A   Clear
3:35 AM 50.0 °F 35.6 °F 58% 30.07 in 10.0 mi Calm Calm - N/A   Clear
3:55 AM 51.8 °F 33.8 °F 50% 30.06 in 10.0 mi Calm Calm - N/A   Clear
4:15 AM 50.0 °F 32.0 °F 50% 30.06 in 10.0 mi Calm Calm - N/A   Clear
4:35 AM 50.0 °F 32.0 °F 50% 30.06 in 10.0 mi Calm Calm - N/A   Clear
4:55 AM 50.0 °F 28.4 °F 43% 30.05 in 10.0 mi Calm Calm - N/A   Clear
5:15 AM 51.8 °F 28.4 °F 41% 30.05 in 10.0 mi Calm Calm - N/A   Clear
5:35 AM 48.2 °F 30.2 °F 50% 30.05 in 10.0 mi Calm Calm - N/A   Clear
5:55 AM 48.2 °F 30.2 °F 50% 30.05 in 10.0 mi Calm Calm - N/A   Clear
6:15 AM 46.4 °F 32.0 °F 57% 30.05 in 10.0 mi Calm Calm - N/A   Clear
6:35 AM 50.0 °F 30.2 °F 47% 30.04 in 10.0 mi Calm Calm - N/A   Clear
6:55 AM 50.0 °F 26.6 °F 40% 30.05 in 10.0 mi Calm Calm - N/A   Clear
7:15 AM 50.0 °F 24.8 °F 37% 30.04 in 10.0 mi Calm Calm - N/A   Clear
7:35 AM 50.0 °F 24.8 °F 37% 30.04 in 10.0 mi Calm Calm - N/A   Clear
7:55 AM 53.6 °F 24.8 °F 33% 30.05 in 10.0 mi Calm Calm - N/A   Clear
8:15 AM 51.8 °F 26.6 °F 38% 30.05 in 10.0 mi Calm Calm - N/A   Clear
8:35 AM 53.6 °F 26.6 °F 35% 30.05 in 10.0 mi Calm Calm - N/A   Clear
8:55 AM 57.2 °F 32.0 °F 38% 30.05 in 10.0 mi Calm Calm - N/A   Clear
9:15 AM 57.2 °F 30.2 °F 36% 30.06 in 10.0 mi Calm Calm - N/A   Clear
9:35 AM 57.2 °F 26.6 °F 31% 30.06 in 10.0 mi Calm Calm - N/A   Clear
9:55 AM 59.0 °F 26.6 °F 29% 30.05 in 10.0 mi Calm Calm - N/A   Clear
10:15 AM 57.2 °F 28.4 °F 33% 30.05 in 10.0 mi Calm Calm - N/A   Clear
10:35 AM 59.0 °F 26.6 °F 29% 30.05 in 10.0 mi Calm Calm - N/A   Clear
10:55 AM 57.2 °F 35.6 °F 44% 30.05 in 10.0 mi Calm Calm - N/A   Clear
11:15 AM 57.2 °F 37.4 °F 48% 30.04 in 10.0 mi Calm Calm - N/A   Clear
11:35 AM 59.0 °F 33.8 °F 39% 30.04 in 10.0 mi Calm Calm - N/A   Clear
11:55 AM 59.0 °F 33.8 °F 39% 30.03 in 10.0 mi Calm Calm - N/A   Clear
12:15 PM 59.0 °F 35.6 °F 42% 30.03 in 10.0 mi West 3.5 mph - N/A   Clear
12:35 PM 59.0 °F 35.6 °F 42% 30.02 in 10.0 mi WNW 3.5 mph - N/A   Clear
12:55 PM 60.8 °F 37.4 °F 42% 30.02 in 10.0 mi Calm Calm - N/A   Clear
1:15 PM 60.8 °F 37.4 °F 42% 30.01 in 10.0 mi Calm Calm - N/A   Clear
1:35 PM 60.8 °F 37.4 °F 42% 30.01 in 10.0 mi West 4.6 mph - N/A   Clear
1:55 PM 62.6 °F 39.2 °F 42% 30.00 in 10.0 mi West 3.5 mph - N/A   Clear
2:15 PM 60.8 °F 37.4 °F 42% 30.00 in 10.0 mi Calm Calm - N/A   Clear
2:35 PM 60.8 °F 37.4 °F 42% 30.00 in 10.0 mi NW 3.5 mph - N/A   Clear
2:55 PM 60.8 °F 37.4 °F 42% 29.99 in 10.0 mi Calm Calm - N/A   Clear
3:15 PM 60.8 °F 37.4 °F 42% 29.99 in 10.0 mi Calm Calm - N/A   Clear
3:35 PM 59.0 °F 37.4 °F 45% 29.99 in 10.0 mi WNW 3.5 mph - N/A   Clear
3:55 PM 59.0 °F 37.4 °F 45% 29.99 in 10.0 mi West 4.6 mph - N/A   Clear
4:15 PM 57.2 °F 39.2 °F 51% 29.99 in 10.0 mi Calm Calm - N/A   Clear
4:35 PM 55.4 °F 41.0 °F 58% 29.99 in 10.0 mi Calm Calm - N/A   Clear
4:55 PM 53.6 °F 42.8 °F 67% 29.99 in 10.0 mi Calm Calm - N/A   Clear
5:15 PM 50.0 °F 41.0 °F 71% 29.99 in 10.0 mi Calm Calm - N/A   Clear
5:35 PM 50.0 °F 41.0 °F 71% 29.99 in 10.0 mi Calm Calm - N/A   Clear
5:55 PM 50.0 °F 39.2 °F 66% 29.99 in 10.0 mi Calm Calm - N/A   Clear
6:15 PM 50.0 °F 41.0 °F 71% 30.00 in 10.0 mi Calm Calm - N/A   Clear
6:35 PM 50.0 °F 41.0 °F 71% 30.00 in 10.0 mi Calm Calm - N/A   Clear
6:55 PM 50.0 °F 41.0 °F 71% 30.01 in 10.0 mi Calm Calm - N/A   Clear
7:15 PM 50.0 °F 41.0 °F 71% 30.01 in 10.0 mi Calm Calm - N/A   Clear
7:35 PM 50.0 °F 39.2 °F 66% 30.00 in 10.0 mi Calm Calm - N/A   Clear
7:55 PM 51.8 °F 41.0 °F 67% 30.00 in 10.0 mi Calm Calm - N/A   Clear
8:15 PM 50.0 °F 41.0 °F 71% 30.01 in 10.0 mi Calm Calm - N/A   Clear
8:35 PM 50.0 °F 39.2 °F 66% 30.01 in 10.0 mi Calm Calm - N/A   Clear
8:55 PM 51.8 °F 39.2 °F 62% 30.01 in 10.0 mi Calm Calm - N/A   Clear
9:15 PM 50.0 °F 39.2 °F 66% 30.02 in 10.0 mi Calm Calm - N/A   Clear
9:35 PM 50.0 °F 37.4 °F 62% 30.01 in 10.0 mi Calm Calm - N/A   Clear
9:55 PM 51.8 °F 37.4 °F 58% 30.01 in 10.0 mi Calm Calm - N/A   Clear
10:15 PM 50.0 °F 37.4 °F 62% 30.01 in 10.0 mi Calm Calm - N/A   Clear
10:35 PM 51.8 °F 35.6 °F 54% 30.01 in 10.0 mi Calm Calm - N/A   Clear
10:55 PM 51.8 °F 35.6 °F 54% 30.01 in 10.0 mi Calm Calm - N/A   Clear
11:15 PM 50.0 °F 35.6 °F 58% 30.02 in 10.0 mi Calm Calm - N/A   Clear
11:35 PM 50.0 °F 35.6 °F 58% 30.02 in 10.0 mi Calm Calm - N/A   Clear
11:55 PM 51.8 °F 35.6 °F 54% 30.02 in 10.0 mi Calm Calm - N/A   Clear